createdAt,value
2022-08-20T00:02:53.615Z,14.4
2022-08-20T00:07:52.085Z,14.3
2022-08-20T00:12:52.039Z,14.3
2022-08-20T00:17:52.050Z,14.2
2022-08-20T00:22:51.890Z,14.4
2022-08-20T00:27:51.925Z,14.2
2022-08-20T00:32:51.879Z,14.2
2022-08-20T00:37:51.768Z,14.0
2022-08-20T00:42:51.650Z,14.0
2022-08-20T00:47:51.757Z,13.9
2022-08-20T00:52:51.356Z,13.6
2022-08-20T00:58:01.039Z,13.7
2022-08-20T01:02:51.375Z,13.6
2022-08-20T01:09:59.558Z,13.8
2022-08-20T01:12:53.236Z,13.7
2022-08-20T01:17:50.894Z,13.8
2022-08-20T01:27:55.494Z,13.8
2022-08-20T01:37:50.507Z,13.6
2022-08-20T01:42:58.880Z,13.6
2022-08-20T01:47:50.403Z,13.5
2022-08-20T01:52:50.192Z,13.4
2022-08-20T01:57:50.195Z,13.4
2022-08-20T02:02:50.049Z,13.4
2022-08-20T02:07:50.102Z,13.5
2022-08-20T02:17:49.821Z,13.6
2022-08-20T02:22:50.314Z,13.6
2022-08-20T02:27:49.667Z,13.6
2022-08-20T02:32:49.423Z,13.8
2022-08-20T02:37:49.403Z,13.8
2022-08-20T02:42:49.180Z,13.8
2022-08-20T02:47:49.091Z,13.7
2022-08-20T02:52:51.830Z,13.8
2022-08-20T02:57:48.912Z,13.7
2022-08-20T03:02:48.729Z,13.8
2022-08-20T03:12:48.527Z,13.7
2022-08-20T03:17:48.402Z,13.8
2022-08-20T03:22:48.324Z,13.9
2022-08-20T03:27:53.139Z,13.8
2022-08-20T03:32:48.041Z,13.7
2022-08-20T03:37:48.219Z,13.8
2022-08-20T03:42:47.731Z,13.8
2022-08-20T03:47:47.650Z,13.7
2022-08-20T03:52:48.936Z,13.6
2022-08-20T03:57:47.485Z,13.7
2022-08-20T04:02:47.388Z,13.7
2022-08-20T04:07:47.237Z,13.8
2022-08-20T04:12:52.715Z,13.8
2022-08-20T04:17:46.929Z,13.9
2022-08-20T04:22:50.790Z,14.1
2022-08-20T04:27:46.657Z,14.1
2022-08-20T04:32:46.580Z,14.1
2022-08-20T04:37:46.472Z,14.3
2022-08-20T04:42:46.337Z,14.2
2022-08-20T04:47:46.318Z,14.4
2022-08-20T04:52:47.551Z,14.4
2022-08-20T04:57:46.111Z,14.2
2022-08-20T05:02:45.970Z,14.2
2022-08-20T05:07:45.853Z,14.2
2022-08-20T05:12:55.630Z,14.1
2022-08-20T05:17:46.643Z,14.1
2022-08-20T05:27:47.818Z,14.0
2022-08-20T05:32:45.379Z,14.1
2022-08-20T05:37:45.384Z,14.1
2022-08-20T05:42:45.200Z,14.1
2022-08-20T05:47:45.112Z,14.2
2022-08-20T05:52:45.017Z,14.2
2022-08-20T05:57:44.907Z,14.2
2022-08-20T06:02:44.799Z,14.3
2022-08-20T06:07:44.752Z,14.1
2022-08-20T06:12:46.159Z,14.4
2022-08-20T06:17:44.493Z,14.5
2022-08-20T06:22:44.432Z,14.6
2022-08-20T06:27:44.331Z,14.6
2022-08-20T06:32:52.156Z,14.6
2022-08-20T06:37:07.791Z,15.0
2022-08-20T06:37:44.174Z,15.0
2022-08-20T06:42:48.183Z,15.1
2022-08-20T06:47:44.000Z,15.2
2022-08-20T06:52:52.775Z,15.4
2022-08-20T06:57:45.044Z,15.4
2022-08-20T07:02:43.875Z,15.6
2022-08-20T07:07:43.831Z,15.8
2022-08-20T07:12:43.796Z,15.8
2022-08-20T07:14:23.297Z,15.8
2022-08-20T07:17:43.767Z,16.0
2022-08-20T07:27:43.693Z,16.3
2022-08-20T07:32:45.227Z,16.5
2022-08-20T07:37:43.654Z,16.7
2022-08-20T07:38:32.468Z,16.7
2022-08-20T07:39:57.965Z,16.9
2022-08-20T07:42:14.814Z,16.9
2022-08-20T07:42:43.643Z,17.0
2022-08-20T07:47:43.680Z,17.1
2022-08-20T07:52:43.670Z,17.3
2022-08-20T08:02:43.752Z,17.6
2022-08-20T08:07:43.853Z,18.0
2022-08-20T08:17:43.905Z,18.4
2022-08-20T08:22:43.980Z,18.6
2022-08-20T08:27:44.007Z,18.7
2022-08-20T08:32:44.113Z,18.8
2022-08-20T08:42:44.368Z,19.1
2022-08-20T08:52:44.630Z,20.1
2022-08-20T08:57:24.697Z,20.1
2022-08-20T08:57:44.771Z,20.0
2022-08-20T09:02:46.369Z,20.1
2022-08-20T09:07:45.120Z,20.4
2022-08-20T09:17:45.554Z,21.0
2022-08-20T09:22:45.728Z,20.4
2022-08-20T09:27:45.965Z,20.4
2022-08-20T09:32:46.256Z,20.2
2022-08-20T09:42:46.676Z,20.4
2022-08-20T09:47:54.754Z,21.2
2022-08-20T09:52:47.019Z,21.3
2022-08-20T09:57:02.374Z,21.2
2022-08-20T09:57:47.388Z,21.3
2022-08-20T10:02:47.716Z,21.0
2022-08-20T10:07:47.999Z,21.0
2022-08-20T10:12:52.820Z,21.4
2022-08-20T10:15:45.703Z,21.4
2022-08-20T10:18:08.563Z,21.8
2022-08-20T10:22:48.813Z,22.2
2022-08-20T10:23:48.200Z,21.9
2022-08-20T10:29:46.627Z,21.6
2022-08-20T10:32:59.825Z,21.6
2022-08-20T10:42:50.071Z,22.6
2022-08-20T10:57:24.800Z,22.4
2022-08-20T11:01:12.077Z,22.0
2022-08-20T11:02:51.450Z,21.7
2022-08-20T11:12:53.442Z,21.1
2022-08-20T11:13:10.565Z,21.1
2022-08-20T11:14:03.721Z,21.1
2022-08-20T11:18:54.642Z,21.2
2022-08-20T11:19:10.521Z,21.2
2022-08-20T11:24:48.864Z,21.4
2022-08-20T11:27:53.003Z,21.3
